createdAt,value
2023-10-26T00:01:42.111Z,17.20
2023-10-26T00:04:09.545Z,15.60
2023-10-26T00:06:37.034Z,13.40
2023-10-26T00:09:04.613Z,14.30
2023-10-26T00:11:32.019Z,17.80
2023-10-26T00:13:59.366Z,18.50
2023-10-26T00:16:26.771Z,15.00
2023-10-26T00:18:54.136Z,16.80
2023-10-26T00:21:22.255Z,19.50
2023-10-26T00:23:49.775Z,20.90
2023-10-26T00:26:17.222Z,17.90
2023-10-26T00:28:46.434Z,15.80
2023-10-26T00:31:13.752Z,16.30
2023-10-26T00:33:41.130Z,16.80
2023-10-26T00:36:09.172Z,16.30
2023-10-26T00:38:36.803Z,17.00
2023-10-26T00:41:05.240Z,12.60
2023-10-26T00:43:33.527Z,16.70
2023-10-26T00:46:01.029Z,14.90
2023-10-26T00:48:29.013Z,14.80
2023-10-26T00:50:56.492Z,14.20
2023-10-26T00:53:23.861Z,14.30
2023-10-26T00:55:52.414Z,19.40
2023-10-26T00:58:20.017Z,28.50
2023-10-26T01:00:47.515Z,23.80
2023-10-26T01:03:15.520Z,18.30
2023-10-26T01:05:43.288Z,20.70
2023-10-26T01:08:10.671Z,19.00
2023-10-26T01:10:38.002Z,17.60
2023-10-26T01:13:05.857Z,21.80
2023-10-26T01:15:33.173Z,17.90
2023-10-26T01:18:00.746Z,15.60
2023-10-26T01:20:29.311Z,17.70
2023-10-26T01:22:56.692Z,16.10
2023-10-26T01:25:24.056Z,12.80
2023-10-26T01:27:51.757Z,18.30
2023-10-26T01:30:19.144Z,16.20
2023-10-26T01:32:46.607Z,15.80
2023-10-26T01:35:14.326Z,17.50
2023-10-26T01:37:41.850Z,14.50
2023-10-26T01:40:09.941Z,25.60
2023-10-26T01:42:38.114Z,17.80
2023-10-26T01:45:06.268Z,18.60
2023-10-26T01:47:33.648Z,15.50
2023-10-26T01:50:01.323Z,18.40
2023-10-26T01:52:28.667Z,16.80
2023-10-26T01:54:56.234Z,14.40
2023-10-26T01:57:24.307Z,18.90
2023-10-26T01:59:56.159Z,13.40
2023-10-26T02:04:51.154Z,20.20
2023-10-26T02:07:18.461Z,26.40
2023-10-26T02:09:45.797Z,20.00
2023-10-26T02:12:13.248Z,18.50
2023-10-26T02:14:40.648Z,18.90
2023-10-26T02:17:08.008Z,22.60
2023-10-26T02:19:35.433Z,18.80
2023-10-26T02:22:02.808Z,23.10
2023-10-26T02:24:30.206Z,28.90
2023-10-26T02:26:57.673Z,20.40
2023-10-26T02:29:24.959Z,18.40
2023-10-26T02:31:52.359Z,17.60
2023-10-26T02:34:20.145Z,17.80
2023-10-26T02:36:47.458Z,17.50
2023-10-26T02:39:15.250Z,21.20
2023-10-26T02:41:42.692Z,15.60
2023-10-26T02:44:09.961Z,17.90
2023-10-26T02:46:37.325Z,22.40
2023-10-26T02:49:04.731Z,16.80
2023-10-26T02:51:32.079Z,15.70
2023-10-26T02:53:59.804Z,18.70
2023-10-26T02:56:27.202Z,17.20
2023-10-26T02:58:54.537Z,16.40
2023-10-26T03:01:21.890Z,14.30
2023-10-26T03:03:49.278Z,18.90
2023-10-26T03:06:17.141Z,18.00
2023-10-26T03:08:44.585Z,18.80
2023-10-26T03:11:11.901Z,21.30
2023-10-26T03:13:39.185Z,25.60
2023-10-26T03:16:07.677Z,22.60
2023-10-26T03:18:35.830Z,27.20
2023-10-26T03:21:03.266Z,22.30
2023-10-26T03:23:31.102Z,18.50
2023-10-26T03:25:58.811Z,20.00
2023-10-26T03:28:26.088Z,27.10
2023-10-26T03:30:53.418Z,19.80
2023-10-26T03:33:20.925Z,19.30
2023-10-26T03:35:48.338Z,21.00
2023-10-26T03:38:15.709Z,17.90
2023-10-26T03:40:43.047Z,20.20
2023-10-26T03:43:11.084Z,17.70
2023-10-26T03:45:38.480Z,19.70
2023-10-26T03:48:06.297Z,14.60
2023-10-26T03:50:33.732Z,19.80
2023-10-26T03:53:01.115Z,20.40
2023-10-26T03:55:28.461Z,18.80
2023-10-26T03:57:55.880Z,21.60
2023-10-26T04:00:23.305Z,20.80
2023-10-26T04:02:50.657Z,17.00
2023-10-26T04:05:18.223Z,17.20
2023-10-26T04:07:46.064Z,14.20
2023-10-26T04:10:13.506Z,14.40
2023-10-26T04:12:40.870Z,20.10
2023-10-26T04:15:08.942Z,18.90
2023-10-26T04:17:36.434Z,19.80
2023-10-26T04:20:04.553Z,15.30
2023-10-26T04:22:32.662Z,12.80
2023-10-26T04:25:00.005Z,13.60
2023-10-26T04:27:27.346Z,17.90
2023-10-26T04:29:54.734Z,15.40
2023-10-26T04:32:22.488Z,12.60
2023-10-26T04:34:49.790Z,12.00
2023-10-26T04:37:17.179Z,16.20
2023-10-26T04:39:47.409Z,15.40
2023-10-26T04:42:14.789Z,16.60
2023-10-26T04:44:42.830Z,10.90
2023-10-26T04:47:11.311Z,15.90
2023-10-26T04:49:38.911Z,11.00
2023-10-26T04:52:06.535Z,14.00
2023-10-26T04:54:33.903Z,13.70
2023-10-26T04:57:01.350Z,17.60
2023-10-26T04:59:28.813Z,15.60
2023-10-26T05:01:56.159Z,27.10
2023-10-26T05:04:23.472Z,20.00
2023-10-26T05:06:52.210Z,12.80
2023-10-26T05:09:19.759Z,16.00
2023-10-26T05:11:47.407Z,28.50
2023-10-26T05:14:14.813Z,22.70
2023-10-26T05:16:42.977Z,20.90
2023-10-26T05:19:10.442Z,27.70
2023-10-26T05:21:37.902Z,21.60
2023-10-26T05:24:05.920Z,16.30
2023-10-26T05:26:33.357Z,23.70
2023-10-26T05:29:03.606Z,23.30
2023-10-26T05:31:30.947Z,21.50
2023-10-26T05:33:58.500Z,28.70
2023-10-26T05:36:25.915Z,30.50
2023-10-26T05:38:53.308Z,30.30
2023-10-26T05:41:20.680Z,35.30
2023-10-26T05:43:48.118Z,37.50
2023-10-26T05:46:15.505Z,29.30
2023-10-26T05:48:42.943Z,31.30
2023-10-26T05:51:10.358Z,32.50
2023-10-26T05:53:37.727Z,31.90
2023-10-26T05:56:05.402Z,28.20
2023-10-26T05:58:32.808Z,31.40
2023-10-26T06:01:01.153Z,24.80
2023-10-26T06:03:28.707Z,26.90
2023-10-26T06:06:00.857Z,24.40
2023-10-26T06:08:28.340Z,20.50
2023-10-26T06:10:55.871Z,25.90
2023-10-26T06:13:23.238Z,21.80
2023-10-26T06:15:50.547Z,19.80
2023-10-26T06:18:18.016Z,23.30
2023-10-26T06:21:00.252Z,24.00
2023-10-26T06:23:30.657Z,23.70
2023-10-26T06:25:59.492Z,23.50
2023-10-26T06:28:27.377Z,25.10
2023-10-26T06:30:55.639Z,21.50
2023-10-26T06:33:23.214Z,27.30
2023-10-26T06:35:50.655Z,31.90
2023-10-26T06:38:18.015Z,31.90
2023-10-26T06:40:46.580Z,35.20
2023-10-26T06:43:13.902Z,28.70
2023-10-26T06:45:41.379Z,25.20
2023-10-26T06:48:09.482Z,26.70
2023-10-26T06:50:36.848Z,24.20
2023-10-26T06:53:04.250Z,21.70
2023-10-26T06:55:34.905Z,23.80
2023-10-26T06:58:02.212Z,23.70
2023-10-26T07:00:30.042Z,33.90
2023-10-26T07:02:57.767Z,26.20
2023-10-26T07:05:25.292Z,27.40
2023-10-26T07:07:52.682Z,31.20
2023-10-26T07:10:21.161Z,29.40
2023-10-26T07:12:48.695Z,25.90
2023-10-26T07:15:16.260Z,24.40
2023-10-26T07:17:43.656Z,24.80
2023-10-26T07:20:14.216Z,24.20
2023-10-26T07:22:43.810Z,22.50
2023-10-26T07:25:11.248Z,24.50
2023-10-26T07:27:38.724Z,21.40
2023-10-26T07:30:07.500Z,21.90
2023-10-26T07:32:35.202Z,20.60
2023-10-26T07:35:02.855Z,20.50
2023-10-26T07:37:31.103Z,16.60
2023-10-26T07:40:28.972Z,22.20
2023-10-26T07:42:45.892Z,19.40
2023-10-26T07:45:13.699Z,17.00
2023-10-26T07:47:41.238Z,16.90
2023-10-26T07:50:09.644Z,15.40
2023-10-26T07:52:37.089Z,16.00
2023-10-26T07:55:05.138Z,17.00
2023-10-26T07:57:32.536Z,21.50
2023-10-26T07:59:59.858Z,15.80
2023-10-26T08:02:27.363Z,18.50
2023-10-26T08:04:55.235Z,17.70
2023-10-26T08:07:22.602Z,15.70
2023-10-26T08:09:49.945Z,17.90
2023-10-26T08:12:17.863Z,16.90
2023-10-26T08:16:11.629Z,18.50
2023-10-26T08:17:36.757Z,16.30
2023-10-26T08:20:08.289Z,16.70
2023-10-26T08:22:36.410Z,19.80
2023-10-26T08:25:04.977Z,16.70
2023-10-26T08:27:37.289Z,16.90
2023-10-26T08:30:05.960Z,15.40
2023-10-26T08:32:33.919Z,19.30
2023-10-26T08:35:01.726Z,17.00
2023-10-26T08:37:29.495Z,17.80
2023-10-26T08:39:57.495Z,15.80
2023-10-26T08:42:24.915Z,16.90
2023-10-26T08:44:52.418Z,15.50
2023-10-26T08:47:22.885Z,16.20
2023-10-26T08:50:08.090Z,17.40
2023-10-26T08:52:42.072Z,15.10
2023-10-26T08:55:09.585Z,14.60
2023-10-26T08:58:06.377Z,16.70
2023-10-26T09:00:34.009Z,15.70
2023-10-26T09:03:04.107Z,14.80
2023-10-26T09:05:32.984Z,16.10
2023-10-26T09:08:16.500Z,12.20
2023-10-26T09:10:43.916Z,12.60
2023-10-26T09:13:12.318Z,13.30
2023-10-26T09:15:51.690Z,13.90
2023-10-26T09:18:19.319Z,13.10
2023-10-26T09:21:07.326Z,13.10
2023-10-26T09:23:36.078Z,15.00
2023-10-26T09:26:09.296Z,13.90
2023-10-26T09:28:53.397Z,16.50
2023-10-26T09:31:21.663Z,13.30
2023-10-26T09:33:49.481Z,16.30
2023-10-26T09:36:18.144Z,16.00
2023-10-26T09:38:45.541Z,14.80
2023-10-26T09:41:13.991Z,13.90
2023-10-26T09:43:44.353Z,12.00
2023-10-26T09:46:12.113Z,13.20
2023-10-26T09:48:39.852Z,12.20
2023-10-26T09:51:07.543Z,9.50
2023-10-26T09:53:36.965Z,10.50
2023-10-26T09:56:05.250Z,8.90
2023-10-26T09:58:42.079Z,10.50
2023-10-26T10:01:35.361Z,12.80
2023-10-26T10:04:03.865Z,9.00
2023-10-26T10:06:54.268Z,10.50
2023-10-26T10:09:30.070Z,15.90
2023-10-26T10:12:07.289Z,17.60
2023-10-26T10:14:52.676Z,12.00
2023-10-26T10:17:21.625Z,14.20
2023-10-26T10:20:09.345Z,10.30
2023-10-26T10:22:39.678Z,13.00
2023-10-26T10:25:10.674Z,10.40
2023-10-26T10:27:38.444Z,14.20
2023-10-26T10:30:09.247Z,10.60
2023-10-26T10:32:48.778Z,12.70
2023-10-26T10:35:22.500Z,18.90
2023-10-26T10:38:18.568Z,10.80
2023-10-26T10:40:55.152Z,11.70
2023-10-26T10:43:35.549Z,10.50
2023-10-26T10:46:22.954Z,13.50
2023-10-26T10:49:07.809Z,12.80
2023-10-26T10:51:42.416Z,10.70
2023-10-26T10:54:26.986Z,8.30
2023-10-26T10:56:58.930Z,8.80
2023-10-26T10:59:31.448Z,10.00
2023-10-26T11:02:10.013Z,10.30
2023-10-26T11:05:05.343Z,8.50
2023-10-26T11:07:36.941Z,8.10
2023-10-26T11:10:05.059Z,12.20
2023-10-26T11:12:32.545Z,11.50
2023-10-26T11:14:59.987Z,9.10
2023-10-26T11:17:30.099Z,10.50
2023-10-26T11:19:57.560Z,8.40
2023-10-26T11:22:25.140Z,9.00
2023-10-26T11:24:52.581Z,11.00
2023-10-26T11:27:22.132Z,11.40
2023-10-26T11:30:06.713Z,11.20
2023-10-26T11:32:35.278Z,9.20
2023-10-26T11:35:09.498Z,9.70
2023-10-26T11:37:37.832Z,10.80
2023-10-26T11:40:06.453Z,8.80
2023-10-26T11:42:53.854Z,9.30
2023-10-26T11:45:22.584Z,9.30
2023-10-26T11:47:56.047Z,8.70
2023-10-26T11:50:36.209Z,9.30
2023-10-26T11:53:05.092Z,9.10
2023-10-26T11:57:12.476Z,11.60
2023-10-26T11:59:39.846Z,13.10
2023-10-26T12:02:07.204Z,8.00
2023-10-26T12:04:34.550Z,6.30
2023-10-26T12:07:01.988Z,7.10
2023-10-26T12:09:30.289Z,10.80
2023-10-26T12:11:57.659Z,8.80
2023-10-26T12:14:25.282Z,6.80
2023-10-26T12:16:54.012Z,7.10
2023-10-26T12:19:21.699Z,9.90
2023-10-26T12:21:49.058Z,8.00
2023-10-26T12:24:16.745Z,7.80
2023-10-26T12:26:44.068Z,7.30
2023-10-26T12:29:11.406Z,8.80
2023-10-26T12:31:38.898Z,7.50
2023-10-26T12:34:06.881Z,8.60
2023-10-26T12:36:34.389Z,9.90
2023-10-26T12:39:04.250Z,9.50
2023-10-26T12:41:31.565Z,8.00
2023-10-26T12:43:58.978Z,9.90
2023-10-26T12:46:26.343Z,8.00
2023-10-26T12:48:53.770Z,7.50
2023-10-26T12:51:21.221Z,7.90
2023-10-26T12:53:48.674Z,10.60
2023-10-26T12:56:16.033Z,10.90
2023-10-26T12:58:43.528Z,8.40
2023-10-26T13:01:10.911Z,9.80
2023-10-26T13:03:38.390Z,8.80
2023-10-26T13:06:06.075Z,12.30
2023-10-26T13:08:33.484Z,9.70
2023-10-26T13:11:00.819Z,9.90
2023-10-26T13:13:28.161Z,8.70
2023-10-26T13:15:55.905Z,12.60
2023-10-26T13:18:23.255Z,12.70
2023-10-26T13:20:50.999Z,6.80
2023-10-26T13:23:19.095Z,13.10
2023-10-26T13:25:46.502Z,10.50
2023-10-26T13:28:14.052Z,15.90
2023-10-26T13:30:41.757Z,20.30
2023-10-26T13:33:10.838Z,13.80
2023-10-26T13:35:38.341Z,10.10
2023-10-26T13:38:07.934Z,9.00
2023-10-26T13:40:35.289Z,11.20
2023-10-26T13:43:02.685Z,17.60
2023-10-26T13:45:30.091Z,21.00
2023-10-26T13:47:59.433Z,21.10
2023-10-26T13:50:27.555Z,18.30
2023-10-26T13:52:54.986Z,23.30
2023-10-26T13:55:22.367Z,21.00
2023-10-26T13:57:49.760Z,34.60
2023-10-26T14:00:18.017Z,38.80
2023-10-26T14:02:45.761Z,41.00
2023-10-26T14:05:29.537Z,29.00
2023-10-26T14:07:58.423Z,21.70
2023-10-26T14:10:26.636Z,30.40
2023-10-26T14:12:54.099Z,36.60
2023-10-26T14:15:21.699Z,33.10
2023-10-26T14:17:49.102Z,30.60
2023-10-26T14:20:16.726Z,40.00
2023-10-26T14:22:44.169Z,38.90
2023-10-26T14:25:11.625Z,29.60
2023-10-26T14:27:40.331Z,27.30
2023-10-26T14:30:09.726Z,31.50
2023-10-26T14:32:38.505Z,31.40
2023-10-26T14:35:06.678Z,33.30
2023-10-26T14:37:34.074Z,30.30
2023-10-26T14:40:01.657Z,31.10
2023-10-26T14:42:29.287Z,32.80
2023-10-26T14:44:57.731Z,30.00
2023-10-26T14:47:25.085Z,34.10
2023-10-26T14:49:52.384Z,24.00
2023-10-26T14:52:19.796Z,29.20
2023-10-26T14:54:47.224Z,27.90
2023-10-26T14:57:14.558Z,29.10
2023-10-26T14:59:41.987Z,34.90
2023-10-26T15:02:09.416Z,72.20
2023-10-26T15:04:36.767Z,76.30
2023-10-26T15:07:04.547Z,47.90
2023-10-26T15:10:20.002Z,45.80
2023-10-26T15:12:21.668Z,29.50
2023-10-26T15:14:49.051Z,23.60
2023-10-26T15:17:16.506Z,25.50
2023-10-26T15:19:43.909Z,26.10
2023-10-26T15:22:11.349Z,27.60
2023-10-26T15:24:38.953Z,29.20
2023-10-26T15:27:10.536Z,32.70
2023-10-26T15:32:07.264Z,24.60
2023-10-26T15:34:34.703Z,22.00
2023-10-26T15:37:02.365Z,21.40
2023-10-26T15:39:34.158Z,18.90
2023-10-26T15:42:01.608Z,15.40
2023-10-26T15:44:29.717Z,11.10
2023-10-26T15:46:57.031Z,15.30
2023-10-26T15:49:33.007Z,12.80
2023-10-26T15:52:04.480Z,7.90
2023-10-26T15:54:32.082Z,7.50
2023-10-26T15:56:59.622Z,8.80
2023-10-26T15:59:26.955Z,9.30
2023-10-26T16:01:54.442Z,11.50
2023-10-26T16:04:22.085Z,8.10
2023-10-26T16:06:51.300Z,9.90
2023-10-26T16:09:18.855Z,9.30
2023-10-26T16:11:46.424Z,8.90
2023-10-26T16:14:14.357Z,15.10
2023-10-26T16:16:41.890Z,12.70
2023-10-26T16:19:11.004Z,13.80
2023-10-26T16:21:38.520Z,16.20
2023-10-26T16:24:06.819Z,15.30
2023-10-26T16:26:34.132Z,16.50
2023-10-26T16:29:01.860Z,18.80
2023-10-26T16:31:29.426Z,17.40
2023-10-26T16:33:56.948Z,13.70
2023-10-26T16:36:25.569Z,15.60
2023-10-26T16:38:53.316Z,16.80
2023-10-26T16:41:20.717Z,16.60
2023-10-26T16:43:48.188Z,19.60
2023-10-26T16:46:15.642Z,15.70
2023-10-26T16:48:44.124Z,22.10
2023-10-26T16:51:11.601Z,18.20
2023-10-26T16:53:41.607Z,14.80
2023-10-26T16:56:09.605Z,20.20
2023-10-26T16:58:37.145Z,17.70
2023-10-26T17:01:07.232Z,14.00
2023-10-26T17:03:35.008Z,15.40
2023-10-26T17:06:03.310Z,16.20
2023-10-26T17:08:32.407Z,16.10
2023-10-26T17:10:59.843Z,17.20
2023-10-26T17:13:27.222Z,16.40
2023-10-26T17:15:54.924Z,29.00
2023-10-26T17:18:22.743Z,15.60
2023-10-26T17:20:50.272Z,17.40
2023-10-26T17:23:17.808Z,18.00
2023-10-26T17:25:45.399Z,16.60
2023-10-26T17:28:12.895Z,18.60
2023-10-26T17:30:41.784Z,27.00
2023-10-26T17:33:12.685Z,28.20
2023-10-26T17:35:44.461Z,23.50
2023-10-26T17:38:11.921Z,21.80
2023-10-26T17:40:39.279Z,24.90
2023-10-26T17:43:07.333Z,22.20
2023-10-26T17:45:35.005Z,28.50
2023-10-26T17:48:02.486Z,29.30
2023-10-26T17:50:29.891Z,23.50
2023-10-26T17:52:57.592Z,23.70
2023-10-26T17:55:25.209Z,26.20
2023-10-26T17:57:52.712Z,24.30
2023-10-26T18:00:20.122Z,21.30
2023-10-26T18:02:47.635Z,19.50
2023-10-26T18:05:15.481Z,22.10
2023-10-26T18:07:43.142Z,21.60
2023-10-26T18:10:10.887Z,25.60
2023-10-26T18:12:38.762Z,28.30
2023-10-26T18:15:07.570Z,40.40
2023-10-26T18:17:35.129Z,37.60
2023-10-26T18:20:02.913Z,28.00
2023-10-26T18:22:30.494Z,32.60
2023-10-26T18:24:58.187Z,31.80
2023-10-26T18:27:26.078Z,34.90
2023-10-26T18:29:53.452Z,32.50
2023-10-26T18:32:21.091Z,29.50
2023-10-26T18:34:48.646Z,22.50
2023-10-26T18:37:16.362Z,19.30
2023-10-26T18:39:44.372Z,25.20
2023-10-26T18:42:12.310Z,22.00
2023-10-26T18:44:39.808Z,15.80
2023-10-26T18:47:07.453Z,17.00
2023-10-26T18:49:35.881Z,18.20
2023-10-26T18:52:03.339Z,21.80
2023-10-26T18:54:30.787Z,26.60
2023-10-26T18:56:58.303Z,23.10
2023-10-26T18:59:25.863Z,20.80
2023-10-26T19:01:53.687Z,13.50
2023-10-26T19:04:21.304Z,14.20
2023-10-26T19:06:49.801Z,13.80
2023-10-26T19:09:17.351Z,9.70
2023-10-26T19:11:44.932Z,7.00
2023-10-26T19:14:12.766Z,6.80
2023-10-26T19:16:40.595Z,10.90
2023-10-26T19:19:08.484Z,8.90
2023-10-26T19:21:36.165Z,7.50
2023-10-26T19:24:04.917Z,9.80
2023-10-26T19:26:32.533Z,10.90
2023-10-26T19:28:59.995Z,7.10
2023-10-26T19:31:27.446Z,9.80
2023-10-26T19:33:55.041Z,8.50
2023-10-26T19:36:22.800Z,12.50
2023-10-26T19:38:50.136Z,11.20
2023-10-26T19:41:17.670Z,10.90
2023-10-26T19:43:45.423Z,11.80
2023-10-26T19:46:13.746Z,10.50
2023-10-26T19:48:41.808Z,12.20
2023-10-26T19:51:09.266Z,9.90
2023-10-26T19:53:37.035Z,13.40
2023-10-26T19:56:05.793Z,12.20
2023-10-26T19:58:33.250Z,8.50
2023-10-26T20:01:00.706Z,11.80
2023-10-26T20:03:28.219Z,12.20
2023-10-26T20:05:55.518Z,12.70
2023-10-26T20:08:22.845Z,9.50
2023-10-26T20:10:50.212Z,14.10
2023-10-26T20:13:17.528Z,16.30
2023-10-26T20:15:45.076Z,9.50
2023-10-26T20:18:12.532Z,8.40
2023-10-26T20:20:39.840Z,8.00
2023-10-26T20:23:07.155Z,8.90
2023-10-26T20:25:34.523Z,8.80
2023-10-26T20:28:03.002Z,8.10
2023-10-26T20:30:31.214Z,10.10
2023-10-26T20:32:58.634Z,11.60
2023-10-26T20:35:26.047Z,8.60
2023-10-26T20:37:53.376Z,13.50
2023-10-26T20:40:20.777Z,6.20
2023-10-26T20:42:51.217Z,6.90
2023-10-26T20:45:19.132Z,9.20
2023-10-26T20:47:46.490Z,8.40
2023-10-26T20:50:14.001Z,7.20
2023-10-26T20:52:41.501Z,9.00
2023-10-26T20:55:09.563Z,6.60
2023-10-26T20:57:36.891Z,7.90
2023-10-26T21:00:05.179Z,10.40
2023-10-26T21:02:32.606Z,10.70
2023-10-26T21:05:00.390Z,8.20
2023-10-26T21:07:28.072Z,8.80
2023-10-26T21:09:57.445Z,11.50
2023-10-26T21:12:24.911Z,8.10
2023-10-26T21:14:55.189Z,13.30
2023-10-26T21:17:22.951Z,12.70
2023-10-26T21:19:50.331Z,9.40
2023-10-26T21:22:17.714Z,10.00
2023-10-26T21:24:48.898Z,12.70
2023-10-26T21:27:16.399Z,11.30
2023-10-26T21:29:45.382Z,10.20
2023-10-26T21:32:12.996Z,11.40
2023-10-26T21:34:40.466Z,10.00
2023-10-26T21:37:08.321Z,12.50
2023-10-26T21:39:35.859Z,8.60
2023-10-26T21:42:03.305Z,14.90
2023-10-26T21:44:30.725Z,11.00
2023-10-26T21:46:58.218Z,14.40
2023-10-26T21:49:25.614Z,14.90
2023-10-26T21:51:53.424Z,13.90
2023-10-26T21:54:20.788Z,15.30
2023-10-26T21:56:48.319Z,11.90
2023-10-26T21:59:15.673Z,12.40
2023-10-26T22:01:43.575Z,11.10
2023-10-26T22:06:41.552Z,13.40
2023-10-26T22:09:08.967Z,13.70
2023-10-26T22:11:36.428Z,12.00
2023-10-26T22:14:04.180Z,9.00
2023-10-26T22:16:31.594Z,9.60
2023-10-26T22:18:59.231Z,10.80
2023-10-26T22:21:26.754Z,14.10
2023-10-26T22:23:55.044Z,9.20
2023-10-26T22:26:22.509Z,11.30
2023-10-26T22:28:49.909Z,12.30
2023-10-26T22:31:17.873Z,11.40
2023-10-26T22:33:47.704Z,12.80
2023-10-26T22:36:15.177Z,10.90
2023-10-26T22:38:42.497Z,10.60
2023-10-26T22:41:11.674Z,12.80
2023-10-26T22:43:39.103Z,12.50
2023-10-26T22:46:06.960Z,14.80
2023-10-26T22:48:34.486Z,10.70
2023-10-26T22:51:02.037Z,15.50
2023-10-26T22:53:29.396Z,14.40
2023-10-26T22:55:56.723Z,12.10
2023-10-26T22:58:24.658Z,20.30
2023-10-26T23:00:54.200Z,13.10
2023-10-26T23:03:21.616Z,16.50
2023-10-26T23:05:48.940Z,14.80
2023-10-26T23:08:16.267Z,14.50
2023-10-26T23:10:43.597Z,11.40
2023-10-26T23:13:10.974Z,13.10
2023-10-26T23:15:38.362Z,16.00
2023-10-26T23:18:05.788Z,15.10
2023-10-26T23:20:33.203Z,12.60
2023-10-26T23:23:00.562Z,14.00
2023-10-26T23:25:28.037Z,12.40
2023-10-26T23:27:55.741Z,13.40
2023-10-26T23:30:23.302Z,12.90
2023-10-26T23:32:51.950Z,11.10
2023-10-26T23:35:19.466Z,13.30
2023-10-26T23:37:46.775Z,12.40
2023-10-26T23:40:14.100Z,11.90
2023-10-26T23:42:43.520Z,14.20
2023-10-26T23:45:10.873Z,11.70
2023-10-26T23:47:38.321Z,12.50
2023-10-26T23:50:06.614Z,14.20
2023-10-26T23:52:36.902Z,11.60
2023-10-26T23:55:04.870Z,16.70
2023-10-26T23:57:32.278Z,13.50
2023-10-26T23:59:59.766Z,12.50
